Maldives Meteorological Service

METAR

Station
VRMM
METAR VRMM 170100Z 22005KT 9999 FEW018 28/23 Q1012 NOSIG=
VRMH
METAR VRMH 170100Z 23006KT 9999 FEW017TCU 28/25 Q1013=
VRMK
METAR VRMK 170100Z VRB01KT 9999 FEW018 BKN270 28/24 Q1013=
VRMT
METAR VRMT 170100Z VRB01KT 9999 FEW018TCU 25/25 Q1012=
VRMG
METAR VRMG 170100Z VRB01KT 9999 FEW018 26/24 Q1012 NOSIG=
Last Updated : 2018-10-17 06:02:33

SPECI

Station
VRMM
VRMH
VRMK
VRMT
VRMG
Last Updated : 2018-10-17 06:02:33